createdAt,value
2023-05-09T00:00:27.436Z,99726.90
2023-05-09T00:02:54.004Z,99724.92
2023-05-09T00:05:21.228Z,99723.75
2023-05-09T00:07:48.091Z,99717.66
2023-05-09T00:10:14.482Z,99719.83
2023-05-09T00:12:43.028Z,99714.96
2023-05-09T00:15:09.710Z,99715.55
2023-05-09T00:17:37.948Z,99712.84
2023-05-09T00:20:08.664Z,99710.39
2023-05-09T00:22:36.051Z,99711.18
2023-05-09T00:25:03.282Z,99708.44
2023-05-09T00:27:30.190Z,99711.16
2023-05-09T00:29:56.596Z,99711.69
2023-05-09T00:32:22.852Z,99713.05
2023-05-09T00:34:49.823Z,99708.59
2023-05-09T00:37:18.586Z,99708.16
2023-05-09T00:39:45.537Z,99707.93
2023-05-09T00:42:11.873Z,99706.70
2023-05-09T00:44:38.154Z,99703.71
2023-05-09T00:47:05.266Z,99707.20
2023-05-09T00:49:35.925Z,99704.98
2023-05-09T00:52:02.406Z,99705.36
2023-05-09T00:54:29.191Z,99706.65
2023-05-09T00:56:55.549Z,99703.05
2023-05-09T00:59:21.971Z,99703.62
2023-05-09T01:01:48.336Z,99702.27
2023-05-09T01:04:15.962Z,99703.73
2023-05-09T01:07:02.305Z,99703.08
2023-05-09T01:10:02.127Z,99705.10
2023-05-09T01:12:36.682Z,99708.70
2023-05-09T01:15:16.205Z,99711.07
2023-05-09T01:17:58.108Z,99707.63
2023-05-09T01:20:38.444Z,99707.91
2023-05-09T01:23:04.733Z,99710.81
2023-05-09T01:26:02.698Z,99705.85
2023-05-09T01:28:55.035Z,99706.75
2023-05-09T01:31:22.336Z,99705.36
2023-05-09T01:33:53.438Z,99703.61
2023-05-09T01:36:20.802Z,99708.69
2023-05-09T01:38:48.484Z,99704.92
2023-05-09T01:41:15.665Z,99709.71
2023-05-09T01:43:42.259Z,99707.92
2023-05-09T01:46:08.799Z,99709.05
2023-05-09T01:48:35.591Z,99708.65
2023-05-09T01:51:02.073Z,99708.90
2023-05-09T01:53:28.715Z,99712.52
2023-05-09T01:55:55.478Z,99705.02
2023-05-09T01:58:22.116Z,99705.66
2023-05-09T02:00:48.525Z,99706.63
2023-05-09T02:03:15.325Z,99707.58
2023-05-09T02:05:42.032Z,99707.89
2023-05-09T02:08:08.363Z,99706.14
2023-05-09T02:10:35.467Z,99705.73
2023-05-09T02:13:02.314Z,99701.38
2023-05-09T02:15:28.786Z,99701.36
2023-05-09T02:17:55.448Z,99700.81
2023-05-09T02:20:21.821Z,99704.25
2023-05-09T02:22:48.249Z,99707.92
2023-05-09T02:25:14.923Z,99702.20
2023-05-09T02:27:42.824Z,99701.98
2023-05-09T02:30:12.433Z,99701.94
2023-05-09T02:32:39.477Z,99703.14
2023-05-09T02:35:06.491Z,99700.70
2023-05-09T02:37:34.902Z,99695.13
2023-05-09T02:40:01.252Z,99698.09
2023-05-09T02:42:29.517Z,99695.79
2023-05-09T02:44:56.226Z,99698.53
2023-05-09T02:47:22.585Z,99694.14
2023-05-09T02:49:49.060Z,99692.26
2023-05-09T02:52:16.284Z,99692.55
2023-05-09T02:54:42.744Z,99696.89
2023-05-09T02:57:09.156Z,99698.72
2023-05-09T02:59:35.915Z,99692.21
2023-05-09T03:02:03.036Z,99702.53
2023-05-09T03:04:29.918Z,99696.85
2023-05-09T03:06:56.293Z,99698.05
2023-05-09T03:09:23.886Z,99698.98
2023-05-09T03:11:50.298Z,99700.15
2023-05-09T03:14:16.722Z,99700.59
2023-05-09T03:16:43.087Z,99708.80
2023-05-09T03:19:17.085Z,99709.09
2023-05-09T03:21:43.713Z,99708.22
2023-05-09T03:24:10.396Z,99711.21
2023-05-09T03:26:37.015Z,99717.65
2023-05-09T03:29:03.652Z,99714.83
2023-05-09T03:31:30.102Z,99719.80
2023-05-09T03:33:56.865Z,99721.49
2023-05-09T03:36:24.800Z,99729.85
2023-05-09T03:38:51.394Z,99725.00
2023-05-09T03:41:20.115Z,99724.02
2023-05-09T03:43:46.832Z,99725.58
2023-05-09T03:46:13.391Z,99729.45
2023-05-09T03:48:40.487Z,99733.85
2023-05-09T03:51:06.977Z,99732.66
2023-05-09T03:53:35.176Z,99733.61
2023-05-09T03:56:01.637Z,99734.95
2023-05-09T03:58:30.703Z,99737.73
2023-05-09T04:00:57.571Z,99740.31
2023-05-09T04:03:24.265Z,99739.65
2023-05-09T04:05:51.391Z,99742.22
2023-05-09T04:08:31.897Z,99744.45
2023-05-09T04:10:58.340Z,99746.37
2023-05-09T04:13:25.224Z,99742.92
2023-05-09T04:15:51.764Z,99740.77
2023-05-09T04:18:18.434Z,99739.69
2023-05-09T04:20:45.779Z,99738.96
2023-05-09T04:23:12.445Z,99740.85
2023-05-09T04:25:39.478Z,99740.11
2023-05-09T04:28:05.940Z,99741.20
2023-05-09T04:30:32.366Z,99738.69
2023-05-09T04:32:58.791Z,99740.61
2023-05-09T04:35:26.523Z,99738.95
2023-05-09T04:37:53.252Z,99735.48
2023-05-09T04:40:20.332Z,99735.34
2023-05-09T04:42:54.293Z,99736.36
2023-05-09T04:45:22.823Z,99734.22
2023-05-09T04:47:49.156Z,99731.43
2023-05-09T04:50:16.002Z,99732.61
2023-05-09T04:52:42.481Z,99727.25
2023-05-09T04:55:09.074Z,99733.10
2023-05-09T04:57:38.845Z,99731.23
2023-05-09T05:00:10.915Z,99730.73
2023-05-09T05:02:38.441Z,99731.25
2023-05-09T05:05:11.503Z,99729.44
2023-05-09T05:07:40.545Z,99728.89
2023-05-09T05:10:08.448Z,99729.40
2023-05-09T05:12:36.421Z,99729.63
2023-05-09T05:15:04.390Z,99727.50
2023-05-09T05:17:31.952Z,99723.70
2023-05-09T05:19:59.110Z,99720.20
2023-05-09T05:22:26.414Z,99720.80
2023-05-09T05:24:52.718Z,99720.70
2023-05-09T05:27:19.231Z,99719.36
2023-05-09T05:29:45.512Z,99715.16
2023-05-09T05:32:11.975Z,99714.21
2023-05-09T05:34:38.901Z,99715.75
2023-05-09T05:37:05.332Z,99714.71
2023-05-09T05:39:31.965Z,99713.92
2023-05-09T05:41:58.292Z,99716.77
2023-05-09T05:44:25.098Z,99716.38
2023-05-09T05:46:51.391Z,99717.52
2023-05-09T05:49:18.144Z,99717.38
2023-05-09T05:51:44.368Z,99716.85
2023-05-09T05:54:10.983Z,99716.48
2023-05-09T05:56:37.309Z,99718.67
2023-05-09T05:59:04.308Z,99720.66
2023-05-09T06:01:30.861Z,99719.30
2023-05-09T06:03:57.466Z,99718.41
2023-05-09T06:06:28.580Z,99716.05
2023-05-09T06:08:55.162Z,99719.92
2023-05-09T06:11:21.611Z,99714.46
2023-05-09T06:13:49.095Z,99716.39
2023-05-09T06:16:19.868Z,99717.58
2023-05-09T06:18:48.606Z,99711.77
2023-05-09T06:21:15.022Z,99715.27
2023-05-09T06:23:51.081Z,99711.00
2023-05-09T06:26:27.548Z,99709.51
2023-05-09T06:28:53.898Z,99705.11
2023-05-09T06:31:20.202Z,99709.30
2023-05-09T06:33:46.573Z,99706.44
2023-05-09T06:36:12.847Z,99707.36
2023-05-09T06:38:39.091Z,99710.95
2023-05-09T06:41:05.544Z,99710.12
2023-05-09T06:43:32.003Z,99707.06
2023-05-09T06:45:58.517Z,99705.55
2023-05-09T06:48:25.404Z,99705.44
2023-05-09T06:50:51.696Z,99696.95
2023-05-09T06:53:17.960Z,99700.65
2023-05-09T06:55:44.275Z,99703.00
2023-05-09T06:58:11.490Z,99694.73
2023-05-09T07:00:37.890Z,99697.63
2023-05-09T07:03:06.622Z,99695.00
2023-05-09T07:05:34.101Z,99694.30
2023-05-09T07:08:00.794Z,99692.23
2023-05-09T07:10:27.471Z,99686.15
2023-05-09T07:12:53.924Z,99686.55
2023-05-09T07:15:32.453Z,99685.34
2023-05-09T07:18:03.725Z,99683.27
2023-05-09T07:20:30.055Z,99684.00
2023-05-09T07:22:57.749Z,99679.02
2023-05-09T07:25:24.106Z,99672.70
2023-05-09T07:27:50.413Z,99681.29
2023-05-09T07:30:16.939Z,99681.02
2023-05-09T07:32:43.902Z,99678.27
2023-05-09T07:35:10.365Z,99678.20
2023-05-09T07:37:36.955Z,99683.35
2023-05-09T07:40:05.342Z,99673.55
2023-05-09T07:42:34.487Z,99680.20
2023-05-09T07:45:00.744Z,99677.09
2023-05-09T14:15:00.465Z,99418.50
2023-05-09T14:17:27.506Z,99415.95
2023-05-09T14:19:54.511Z,99410.02
2023-05-09T14:22:21.640Z,99410.86
2023-05-09T14:24:48.794Z,99411.27
2023-05-09T14:27:16.512Z,99408.27
2023-05-09T14:29:45.038Z,99407.33
2023-05-09T14:32:12.950Z,99404.16
2023-05-09T14:34:39.957Z,99401.70
2023-05-09T14:37:13.606Z,99398.89
2023-05-09T14:39:42.157Z,99400.64
2023-05-09T14:42:11.405Z,99397.77
2023-05-09T14:44:38.807Z,99395.10
2023-05-09T14:47:06.088Z,99393.87
2023-05-09T14:49:33.177Z,99392.41
2023-05-09T14:52:00.232Z,99388.75
2023-05-09T14:54:27.383Z,99388.97
2023-05-09T14:56:54.567Z,99382.24
2023-05-09T14:59:21.475Z,99380.36
2023-05-09T15:01:48.804Z,99376.83
2023-05-09T15:04:15.769Z,99374.79
2023-05-09T15:06:43.164Z,99374.52
2023-05-09T15:09:10.339Z,99381.48
2023-05-09T15:11:47.892Z,99383.67
2023-05-09T15:14:16.826Z,99376.28
2023-05-09T15:16:44.221Z,99378.21
2023-05-09T15:19:11.433Z,99375.15
2023-05-09T15:21:38.460Z,99372.63
2023-05-09T15:24:05.910Z,99372.95
2023-05-09T15:26:32.984Z,99368.83
2023-05-09T15:29:00.009Z,99368.21
2023-05-09T15:31:32.365Z,99369.78
2023-05-09T15:33:59.989Z,99365.76
2023-05-09T15:36:29.546Z,99361.64
2023-05-09T15:38:56.627Z,99361.33
2023-05-09T15:41:23.587Z,99359.66
2023-05-09T15:43:51.039Z,99357.90
2023-05-09T15:46:18.212Z,99351.95
2023-05-09T15:48:45.291Z,99348.72
2023-05-09T15:51:13.971Z,99344.38
2023-05-09T15:53:40.989Z,99342.14
2023-05-09T15:56:08.530Z,99340.30
2023-05-09T15:58:36.848Z,99338.82
2023-05-09T16:01:06.249Z,99341.50
2023-05-09T16:03:35.038Z,99341.55
2023-05-09T16:06:02.378Z,99342.86
2023-05-09T16:08:29.484Z,99340.55
2023-05-09T16:10:56.642Z,99344.50
2023-05-09T16:13:24.216Z,99343.39
2023-05-09T16:15:51.417Z,99340.98
2023-05-09T16:20:38.435Z,99334.16
2023-05-09T16:23:05.522Z,99330.88
2023-05-09T16:25:35.202Z,99334.17
2023-05-09T16:28:02.827Z,99331.41
2023-05-09T16:30:30.237Z,99331.20
2023-05-09T16:32:57.252Z,99327.34
2023-05-09T16:35:24.280Z,99325.38
2023-05-09T16:37:51.501Z,99325.40
2023-05-09T16:40:18.934Z,99323.35
2023-05-09T16:42:45.949Z,99320.06
2023-05-09T16:45:12.938Z,99323.52
2023-05-09T16:47:40.040Z,99323.15
2023-05-09T16:50:07.505Z,99322.43
2023-05-09T16:52:34.732Z,99323.09
2023-05-09T16:55:01.838Z,99317.57
2023-05-09T16:57:28.899Z,99316.14
2023-05-09T16:59:55.823Z,99314.39
2023-05-09T17:02:22.921Z,99312.02
2023-05-09T17:04:49.942Z,99309.86
2023-05-09T17:07:17.225Z,99308.13
2023-05-09T17:09:45.380Z,99309.45
2023-05-09T17:12:17.544Z,99311.85
2023-05-09T17:14:45.731Z,99315.88
2023-05-09T17:17:13.227Z,99311.89
2023-05-09T17:19:40.908Z,99312.11
2023-05-09T17:22:08.741Z,99312.48
2023-05-09T17:24:35.875Z,99317.34
2023-05-09T17:27:02.932Z,99317.01
2023-05-09T17:29:31.088Z,99318.70
2023-05-09T17:32:00.992Z,99318.33
2023-05-09T17:34:28.469Z,99315.55
2023-05-09T17:36:56.481Z,99316.10
2023-05-09T17:39:23.858Z,99314.06
2023-05-09T17:41:51.010Z,99317.14
2023-05-09T17:44:17.970Z,99312.17
2023-05-09T17:46:45.016Z,99315.58
2023-05-09T17:49:14.118Z,99314.69
2023-05-09T17:51:41.416Z,99321.48
2023-05-09T17:54:08.437Z,99318.61
2023-05-09T17:56:35.676Z,99316.56
2023-05-09T17:59:02.877Z,99317.28
2023-05-09T18:01:29.949Z,99317.65
2023-05-09T18:03:57.086Z,99319.45
2023-05-09T18:06:24.417Z,99317.96
2023-05-09T18:08:51.505Z,99322.79
2023-05-09T18:11:18.520Z,99324.30
2023-05-09T18:13:45.483Z,99327.75
2023-05-09T18:16:12.529Z,99328.61
2023-05-09T18:18:39.500Z,99333.30
2023-05-09T18:21:08.111Z,99336.98
2023-05-09T18:23:35.088Z,99336.65
2023-05-09T18:26:02.158Z,99338.67
2023-05-09T18:28:29.593Z,99339.55
2023-05-09T18:31:00.599Z,99344.39
2023-05-09T18:33:28.375Z,99341.33
2023-05-09T18:35:55.692Z,99346.35
2023-05-09T18:38:23.029Z,99348.11
2023-05-09T18:40:52.371Z,99351.52
2023-05-09T18:43:21.654Z,99350.41
2023-05-09T18:45:49.279Z,99352.94
2023-05-09T18:48:17.109Z,99352.53
2023-05-09T18:50:44.103Z,99356.08
2023-05-09T18:53:11.052Z,99356.47
2023-05-09T18:55:38.631Z,99355.38
2023-05-09T18:58:06.503Z,99355.96
2023-05-09T19:00:34.926Z,99354.86
2023-05-09T19:03:02.190Z,99352.93
2023-05-09T19:05:29.891Z,99357.60
2023-05-09T19:07:57.702Z,99361.85
2023-05-09T19:10:24.844Z,99364.92
2023-05-09T19:12:52.216Z,99361.38
2023-05-09T19:15:20.067Z,99361.14
2023-05-09T19:17:47.831Z,99363.50
2023-05-09T19:20:15.951Z,99363.14
2023-05-09T19:22:48.230Z,99362.73
2023-05-09T19:25:17.831Z,99357.92
2023-05-09T19:27:45.696Z,99360.29
2023-05-09T19:30:17.048Z,99359.48
2023-05-09T19:32:45.225Z,99360.31
2023-05-09T19:35:13.542Z,99359.55
2023-05-09T19:37:40.945Z,99355.66
2023-05-09T19:40:08.642Z,99358.61
2023-05-09T19:42:37.881Z,99362.20
2023-05-09T19:45:05.413Z,99363.80
2023-05-09T19:47:33.805Z,99367.33
2023-05-09T19:50:02.159Z,99368.98
2023-05-09T19:52:30.087Z,99370.95
2023-05-09T19:54:57.834Z,99369.30
2023-05-09T19:57:25.321Z,99365.80
2023-05-09T19:59:53.452Z,99363.39
2023-05-09T20:02:20.435Z,99365.89
2023-05-09T20:04:49.944Z,99367.81
2023-05-09T20:07:17.430Z,99367.23
2023-05-09T20:09:44.484Z,99363.92
2023-05-09T20:12:11.630Z,99366.07
2023-05-09T20:14:38.901Z,99366.98
2023-05-09T20:17:06.608Z,99365.25
2023-05-09T20:19:34.313Z,99371.21
2023-05-09T20:22:01.887Z,99370.65
2023-05-09T20:24:31.361Z,99368.02
2023-05-09T20:26:58.389Z,99364.04
2023-05-09T20:29:26.476Z,99363.37
2023-05-09T20:31:53.488Z,99360.38
2023-05-09T20:34:22.200Z,99368.44
2023-05-09T20:36:52.299Z,99371.60
2023-05-09T20:39:19.990Z,99364.85
2023-05-09T20:41:47.876Z,99363.98
2023-05-09T20:44:15.265Z,99364.65
2023-05-09T20:46:42.346Z,99368.87
2023-05-09T20:49:09.475Z,99370.55
2023-05-09T20:51:36.738Z,99372.77
2023-05-09T20:54:04.038Z,99378.64
2023-05-09T20:56:31.938Z,99375.30
2023-05-09T20:59:01.121Z,99372.11
2023-05-09T21:01:29.345Z,99376.41
2023-05-09T21:03:56.337Z,99373.91
2023-05-09T21:06:23.630Z,99367.91
2023-05-09T21:08:51.314Z,99366.27
2023-05-09T21:11:19.475Z,99372.95
2023-05-09T21:13:46.513Z,99372.84
2023-05-09T21:16:13.543Z,99375.94
2023-05-09T21:18:40.797Z,99374.80
2023-05-09T21:21:08.408Z,99376.48
2023-05-09T21:23:36.017Z,99375.72
2023-05-09T21:26:03.059Z,99377.02
2023-05-09T21:28:30.558Z,99376.29
2023-05-09T21:30:57.803Z,99380.84
2023-05-09T21:33:25.749Z,99375.65
2023-05-09T21:35:52.745Z,99375.92
2023-05-09T21:38:20.352Z,99373.55
2023-05-09T21:40:47.332Z,99374.06
2023-05-09T21:43:15.306Z,99374.64
2023-05-09T21:45:42.322Z,99372.17
2023-05-09T21:48:09.484Z,99371.56
2023-05-09T21:50:36.620Z,99371.48
2023-05-09T21:53:04.076Z,99374.97
2023-05-09T21:55:31.724Z,99371.02
2023-05-09T21:57:58.738Z,99366.19
2023-05-09T22:00:25.778Z,99368.02
2023-05-09T22:02:53.284Z,99363.37
2023-05-09T22:05:20.367Z,99364.14
2023-05-09T22:07:47.443Z,99366.08
2023-05-09T22:10:15.320Z,99362.94
2023-05-09T22:12:42.675Z,99364.81
2023-05-09T22:15:11.300Z,99359.13
2023-05-09T22:17:38.581Z,99361.22
2023-05-09T22:20:06.535Z,99357.73
2023-05-09T22:22:33.708Z,99359.80
2023-05-09T22:25:00.651Z,99360.70
2023-05-09T22:27:27.813Z,99359.67
2023-05-09T22:29:55.657Z,99358.46
2023-05-09T22:32:22.704Z,99360.89
2023-05-09T22:34:49.734Z,99361.12
2023-05-09T22:37:16.887Z,99359.36
2023-05-09T22:39:45.797Z,99357.80
2023-05-09T22:42:12.916Z,99354.52
2023-05-09T22:44:40.337Z,99356.77
2023-05-09T22:47:08.220Z,99354.64
2023-05-09T22:49:35.962Z,99348.98
2023-05-09T22:52:03.280Z,99347.94
2023-05-09T22:54:31.490Z,99347.43
2023-05-09T22:56:58.544Z,99346.12
2023-05-09T22:59:26.727Z,99343.38
2023-05-09T23:01:53.691Z,99344.52
2023-05-09T23:04:20.745Z,99346.09
2023-05-09T23:06:47.749Z,99339.83
2023-05-09T23:09:15.074Z,99344.08
2023-05-09T23:11:42.390Z,99344.30
2023-05-09T23:14:09.722Z,99343.11
2023-05-09T23:16:36.907Z,99342.48
2023-05-09T23:19:04.548Z,99340.49
2023-05-09T23:21:32.748Z,99343.21
2023-05-09T23:23:59.773Z,99345.34
2023-05-09T23:26:27.446Z,99346.10
2023-05-09T23:28:55.625Z,99345.17
2023-05-09T23:31:22.822Z,99341.13
2023-05-09T23:33:50.203Z,99337.25
2023-05-09T23:36:17.377Z,99338.02
2023-05-09T23:38:44.334Z,99335.11
2023-05-09T23:41:11.374Z,99335.98
2023-05-09T23:43:38.446Z,99333.98
2023-05-09T23:46:05.604Z,99332.32
2023-05-09T23:48:34.883Z,99332.04
2023-05-09T23:51:01.884Z,99335.39
2023-05-09T23:53:29.335Z,99334.83
2023-05-09T23:55:56.454Z,99331.70
2023-05-09T23:58:23.522Z,99332.90
